Time;durP1;ratioP1;P1;durP2;ratioP2;P2;SDS_P1;SDS_P2;PMS_P1;PMS_P2;Temp;Humidity;BMP_temperature;BMP_pressure;BME280_temperature;BME280_humidity;BME280_pressure;Samples;Min_cycle;Max_cycle;Signal;HPM_P1;HPM_P2
2022/01/21 00:01:17;;;;;;;7.82;0.40;;;;;;;-0.11;52.87;102907.97;5012420;28;20037;-70
2022/01/21 00:03:43;;;;;;;11.45;0.45;;;;;;;-0.03;52.82;102909.16;5009560;28;20033;-72
2022/01/21 00:06:10;;;;;;;6.10;0.90;;;;;;;-0.22;52.68;102920.44;5011059;28;20049;-71
2022/01/21 00:08:37;;;;;;;8.32;0.90;;;;;;;-0.14;53.02;102916.47;5008162;28;20111;-71
2022/01/21 00:11:03;;;;;;;3.00;0.95;;;;;;;0.01;52.16;102913.56;5009156;28;20036;-73
2022/01/21 00:13:37;;;;;;;9.25;0.80;;;;;;;-0.28;52.89;102908.25;5009940;28;20061;-70
2022/01/21 00:16:13;;;;;;;2.42;0.50;;;;;;;-0.13;52.52;102898.50;5009836;28;20188;-72
2022/01/21 00:18:42;;;;;;;15.65;1.38;;;;;;;-0.24;52.89;102886.94;5012139;28;20046;-72
2022/01/21 00:32:06;;;;;;;9.52;1.40;;;;;;;-0.06;52.45;102909.03;5011870;28;20045;-73
2022/01/21 00:34:32;;;;;;;7.85;1.42;;;;;;;-0.11;52.95;102898.56;4995839;28;20033;-70
2022/01/21 00:36:57;;;;;;;12.52;1.48;;;;;;;0.23;51.85;102907.50;4992565;28;20507;-72
2022/01/21 00:39:26;;;;;;;8.45;1.48;;;;;;;0.23;52.00;102899.78;5008610;28;20129;-71
2022/01/21 00:41:59;;;;;;;12.25;0.88;;;;;;;0.39;51.33;102912.38;5009024;28;20022;-70
2022/01/21 00:44:25;;;;;;;10.50;1.85;;;;;;;-0.36;53.86;102937.91;5009053;28;20041;-70
2022/01/21 00:46:51;;;;;;;7.80;1.02;;;;;;;-0.49;55.30;102951.94;5010102;28;20059;-70
2022/01/21 00:49:16;;;;;;;6.00;0.40;;;;;;;-0.92;57.37;102936.53;5017065;28;20505;-71
2022/01/21 00:51:42;;;;;;;11.50;1.42;;;;;;;-0.10;54.87;102917.44;5014322;28;20057;-70
2022/01/21 00:54:07;;;;;;;8.05;0.30;;;;;;;-0.09;55.03;102914.94;5025339;28;20034;-70
2022/01/21 00:56:33;;;;;;;6.68;0.30;;;;;;;-0.10;54.76;102899.44;5008673;28;20026;-70
2022/01/21 00:58:58;;;;;;;8.75;1.00;;;;;;;0.19;53.26;102908.22;5008842;28;20069;-70
2022/01/21 01:01:24;;;;;;;4.57;0.30;;;;;;;0.17;52.94;102897.88;5007367;28;20037;-70
2022/01/21 01:03:50;;;;;;;4.70;1.35;;;;;;;0.18;52.62;102907.34;5024455;28;20054;-70
2022/01/21 01:06:15;;;;;;;1.85;0.20;;;;;;;0.26;52.21;102908.50;5016475;28;20397;-74
2022/01/21 01:08:41;;;;;;;3.75;0.45;;;;;;;0.09;52.32;102912.16;5024841;28;20442;-72
2022/01/21 01:21:45;;;;;;;8.13;0.50;;;;;;;0.08;52.20;102910.41;5008699;28;20041;-70
2022/01/21 01:29:25;;;;;;;6.20;0.17;;;;;;;0.54;50.98;102909.44;4989389;28;20038;-70
2022/01/21 01:31:52;;;;;;;3.08;0.20;;;;;;;0.39;51.40;102916.63;5007711;28;21142;-70
2022/01/21 01:34:18;;;;;;;9.07;0.55;;;;;;;0.44;51.52;102909.97;4995988;28;20034;-70
2022/01/21 01:36:46;;;;;;;6.05;0.47;;;;;;;0.49;51.63;102918.72;5008451;28;20033;-70
2022/01/21 01:39:17;;;;;;;13.70;1.27;;;;;;;0.61;51.13;102914.00;5008727;28;20360;-70
2022/01/21 01:41:51;;;;;;;1.20;0.50;;;;;;;0.64;50.96;102921.81;5012613;28;20087;-70
2022/01/21 01:49:45;;;;;;;1.80;0.20;;;;;;;0.47;51.64;102902.34;5022357;28;20099;-72
2022/01/21 01:52:14;;;;;;;3.17;0.70;;;;;;;0.31;52.44;102897.50;5011189;28;20050;-72
2022/01/21 01:54:43;;;;;;;8.20;0.35;;;;;;;0.22;52.86;102904.06;5025157;28;20112;-72
2022/01/21 01:57:10;;;;;;;6.35;0.30;;;;;;;0.31;53.13;102905.22;4997138;28;20033;-72
2022/01/21 01:59:35;;;;;;;5.15;0.30;;;;;;;0.25;53.62;102923.88;5024864;28;20030;-73
2022/01/21 02:02:05;;;;;;;12.48;0.68;;;;;;;0.30;53.68;102940.38;5011832;28;23894;-73
2022/01/21 02:04:31;;;;;;;5.20;0.50;;;;;;;-0.37;55.99;102907.88;5010442;28;20033;-73
2022/01/21 02:06:56;;;;;;;8.93;0.95;;;;;;;-0.33;55.71;102920.00;4994032;28;20426;-73
2022/01/21 02:09:25;;;;;;;16.77;0.77;;;;;;;-0.90;57.88;102906.66;5007073;28;20069;-73
2022/01/21 02:11:51;;;;;;;5.90;0.90;;;;;;;-0.25;55.29;102913.47;4999056;28;20507;-73
2022/01/21 02:14:22;;;;;;;13.18;0.82;;;;;;;-0.38;55.84;102903.56;4999154;28;20030;-73
2022/01/21 02:22:05;;;;;;;6.63;0.68;;;;;;;-0.57;56.48;102884.88;5023580;28;20518;-70
2022/01/21 02:24:45;;;;;;;9.05;0.80;;;;;;;-0.60;56.64;102883.88;5011376;28;20036;-70
2022/01/21 02:27:11;;;;;;;8.55;0.60;;;;;;;-0.60;56.39;102865.91;5024974;28;20034;-73
2022/01/21 02:29:45;;;;;;;5.00;0.98;;;;;;;-0.31;55.21;102869.56;5014788;28;20648;-73
2022/01/21 02:32:12;;;;;;;3.60;0.38;;;;;;;-0.49;56.03;102879.16;5011943;28;20520;-74
2022/01/21 02:34:38;;;;;;;5.00;0.90;;;;;;;-0.39;55.45;102882.13;5013689;28;20159;-73
2022/01/21 02:37:04;;;;;;;5.22;0.80;;;;;;;-0.43;55.31;102890.53;5009815;28;20048;-74
2022/01/21 02:39:30;;;;;;;13.13;1.05;;;;;;;-0.31;54.73;102884.13;5024133;28;20025;-72
2022/01/21 02:41:57;;;;;;;2.35;0.20;;;;;;;-0.23;54.39;102893.00;5010098;28;20560;-73
2022/01/21 02:44:24;;;;;;;3.25;0.45;;;;;;;-0.32;54.33;102906.38;5007890;28;20026;-73
2022/01/21 02:46:56;;;;;;;5.85;0.50;;;;;;;-0.41;54.61;102894.03;4996456;28;20100;-72
2022/01/21 02:49:23;;;;;;;3.03;0.43;;;;;;;-0.39;54.78;102910.41;5015287;28;20029;-73
2022/01/21 02:51:53;;;;;;;9.32;1.13;;;;;;;-0.44;55.10;102908.44;5004784;28;20018;-73
2022/01/21 02:54:19;;;;;;;10.57;0.47;;;;;;;-0.29;54.64;102909.03;5016063;28;20489;-74
2022/01/21 02:56:44;;;;;;;12.60;0.75;;;;;;;-0.24;54.42;102911.78;4996247;28;20197;-73
2022/01/21 02:59:11;;;;;;;10.48;1.17;;;;;;;-0.24;54.73;102911.78;5014024;28;20022;-71
2022/01/21 03:01:38;;;;;;;5.90;0.60;;;;;;;-0.11;54.04;102905.41;5014363;28;20143;-74
2022/01/21 03:04:06;;;;;;;3.92;0.75;;;;;;;-0.28;54.82;102915.94;5024578;28;20072;-72
2022/01/21 03:06:33;;;;;;;9.48;0.65;;;;;;;0.01;53.76;102913.56;4994833;28;20029;-73
2022/01/21 03:08:59;;;;;;;4.03;0.30;;;;;;;-0.04;53.91;102909.97;4989447;28;20077;-74
2022/01/21 03:11:26;;;;;;;5.50;0.35;;;;;;;0.13;53.61;102902.88;4975255;28;20069;-73
2022/01/21 03:13:53;;;;;;;10.40;0.25;;;;;;;0.14;53.71;102904.59;4989808;28;20321;-74
2022/01/21 03:16:19;;;;;;;5.72;0.35;;;;;;;0.20;53.52;102905.69;4996034;28;20035;-73
2022/01/21 03:18:44;;;;;;;5.20;0.30;;;;;;;0.01;53.84;102906.75;4989150;28;20580;-73
2022/01/21 03:21:15;;;;;;;11.90;0.63;;;;;;;0.04;53.65;102900.84;4988867;28;20037;-73
2022/01/21 03:23:51;;;;;;;8.13;0.77;;;;;;;0.03;54.07;102901.63;4988042;28;20038;-73
2022/01/21 03:26:20;;;;;;;8.88;0.63;;;;;;;0.19;53.34;102901.41;5017118;28;20491;-72
2022/01/21 03:28:51;;;;;;;9.40;1.33;;;;;;;0.47;52.41;102899.78;5011678;28;20133;-73
2022/01/21 03:31:17;;;;;;;4.80;0.20;;;;;;;0.21;53.24;102897.19;4995712;28;20038;-74
2022/01/21 03:33:44;;;;;;;6.28;0.57;;;;;;;0.18;52.94;102906.47;4994180;28;20026;-72
2022/01/21 03:36:10;;;;;;;7.85;0.35;;;;;;;0.38;52.06;102909.75;4996170;28;20022;-70
2022/01/21 03:38:36;;;;;;;4.00;0.63;;;;;;;0.47;51.70;102905.78;4989872;28;20066;-70
2022/01/21 03:41:03;;;;;;;5.55;0.30;;;;;;;0.40;51.87;102913.25;4998545;28;20038;-70
2022/01/21 03:43:30;;;;;;;9.55;1.65;;;;;;;0.72;51.08;102916.06;4997601;28;20046;-70
2022/01/21 03:45:57;;;;;;;9.15;0.50;;;;;;;0.72;51.38;102916.06;4999273;28;20034;-70
2022/01/21 03:48:24;;;;;;;5.32;0.20;;;;;;;0.93;50.71;102921.06;4992403;28;20462;-70
2022/01/21 03:50:51;;;;;;;13.02;0.30;;;;;;;0.95;51.11;102924.53;4990894;28;20049;-69
2022/01/21 03:53:17;;;;;;;3.30;0.20;;;;;;;0.84;51.72;102919.94;5006990;28;20456;-69
2022/01/21 03:55:43;;;;;;;3.15;0.30;;;;;;;1.03;50.94;102933.41;4990713;28;20031;-71
2022/01/21 03:58:11;;;;;;;7.43;0.90;;;;;;;0.90;52.05;102932.09;4977765;28;20038;-71
2022/01/21 04:00:47;;;;;;;9.18;0.75;;;;;;;0.65;53.54;102923.56;4991585;28;20511;-69
2022/01/21 04:03:13;;;;;;;;;;;;;;;0.65;53.93;102920.13;5003832;28;20049;-70
2022/01/21 04:05:39;;;;;;;4.65;0.25;;;;;;;0.65;53.52;102920.13;5029495;28;20302;-69
2022/01/21 04:08:06;;;;;;;10.15;0.20;;;;;;;0.60;53.43;102914.81;4998567;28;20473;-69
2022/01/21 04:10:32;;;;;;;6.38;0.20;;;;;;;0.60;53.41;102912.25;5007866;28;20083;-70
2022/01/21 04:12:58;;;;;;;8.38;0.50;;;;;;;0.41;53.96;102920.13;4977293;28;20090;-70
2022/01/21 04:15:24;;;;;;;3.20;0.30;;;;;;;0.19;54.45;102929.69;5007236;28;20030;-71
2022/01/21 04:17:50;;;;;;;0.35;0.08;;;;;;;0.16;54.68;102929.56;5006391;28;20034;-71
2022/01/21 04:20:19;;;;;;;3.63;0.13;;;;;;;0.18;54.63;102924.47;4978865;28;20034;-70
2022/01/21 04:22:45;;;;;;;4.38;0.32;;;;;;;0.22;54.54;102937.50;4986619;28;20049;-69
2022/01/21 04:25:12;;;;;;;6.13;0.40;;;;;;;0.20;54.71;102934.00;5009746;28;20080;-70
2022/01/21 04:27:38;;;;;;;5.40;0.17;;;;;;;0.46;54.00;102944.34;5007634;28;20700;-70
2022/01/21 04:30:06;;;;;;;4.57;0.20;;;;;;;0.20;54.74;102934.00;5013586;28;20034;-70
2022/01/21 04:32:32;;;;;;;6.50;0.20;;;;;;;0.39;54.32;102934.63;5001894;28;20037;-70
2022/01/21 04:34:59;;;;;;;7.28;0.40;;;;;;;0.47;54.04;102935.78;4998988;28;20478;-70
2022/01/21 04:37:26;;;;;;;4.97;0.30;;;;;;;0.57;53.79;102931.84;5003347;28;20325;-70
2022/01/21 04:40:01;;;;;;;5.72;0.15;;;;;;;0.39;54.68;102937.22;5005828;28;20050;-70
2022/01/21 04:47:56;;;;;;;6.47;0.77;;;;;;;0.74;53.60;102925.56;4994941;28;20835;-73
2022/01/21 04:50:25;;;;;;;9.13;0.25;;;;;;;0.60;54.15;102917.38;4983008;28;20034;-71
2022/01/21 04:52:53;;;;;;;10.32;0.35;;;;;;;0.64;54.24;102919.25;4997988;28;20696;-70
2022/01/21 04:55:35;;;;;;;2.50;0.13;;;;;;;0.74;53.64;102925.56;5005859;28;20353;-69
2022/01/21 04:58:01;;;;;;;7.72;0.35;;;;;;;0.80;53.67;102930.06;4990489;28;20044;-69
2022/01/21 05:00:29;;;;;;;5.82;0.20;;;;;;;0.80;53.65;102932.66;5005997;28;22381;-75
2022/01/21 05:02:56;;;;;;;7.80;0.98;;;;;;;0.64;54.54;102929.53;4994914;28;20443;-75
2022/01/21 05:05:23;;;;;;;4.43;0.73;;;;;;;0.54;55.15;102919.75;5005781;28;20588;-74
2022/01/21 05:07:48;;;;;;;9.70;0.60;;;;;;;0.33;56.33;102926.72;5004124;28;20038;-73
2022/01/21 05:10:15;;;;;;;7.35;0.40;;;;;;;0.46;56.41;102916.91;5023603;28;20045;-74
2022/01/21 05:12:42;;;;;;;6.97;1.13;;;;;;;0.64;55.89;102918.38;5016919;28;20042;-74
2022/01/21 05:15:26;;;;;;;7.45;0.40;;;;;;;0.59;55.87;102915.66;4982473;28;20061;-74
2022/01/21 05:17:53;;;;;;;5.60;0.80;;;;;;;0.67;55.83;102916.78;5003665;28;20038;-70
2022/01/21 05:20:35;;;;;;;16.63;0.90;;;;;;;0.64;56.12;102919.25;4989764;28;20045;-70
2022/01/21 05:23:19;;;;;;;6.65;0.47;;;;;;;0.83;55.27;102914.72;5005924;28;20038;-71
2022/01/21 05:25:44;;;;;;;3.13;0.95;;;;;;;1.03;54.73;102912.78;4988686;28;20061;-70
2022/01/21 05:28:10;;;;;;;6.88;0.30;;;;;;;0.88;55.26;102915.72;4990555;28;20316;-71
2022/01/21 05:30:55;;;;;;;6.25;1.20;;;;;;;0.81;55.34;102916.38;4989138;28;20109;-70
2022/01/21 05:33:37;;;;;;;11.85;0.65;;;;;;;1.02;54.82;102927.38;4989687;28;20042;-69
2022/01/21 05:36:27;;;;;;;17.15;1.23;;;;;;;1.04;54.95;102905.13;5005835;28;20038;-73
2022/01/21 05:39:30;;;;;;;9.98;0.40;;;;;;;0.93;55.37;102905.63;4949596;28;20051;-69
2022/01/21 05:42:12;;;;;;;5.47;0.30;;;;;;;0.84;55.79;102906.19;4938129;28;20504;-70
2022/01/21 05:47:38;;;;;;;13.43;0.45;;;;;;;0.80;56.25;102909.47;5022076;28;20049;-74
2022/01/21 05:50:24;;;;;;;9.80;0.50;;;;;;;1.10;54.94;102905.34;4998416;28;20033;-74
2022/01/21 05:53:01;;;;;;;11.48;0.60;;;;;;;1.18;55.33;102907.28;5021705;28;20042;-73
2022/01/21 05:55:45;;;;;;;10.82;0.40;;;;;;;0.96;56.54;102908.28;5009427;28;20133;-72
2022/01/21 05:58:34;;;;;;;9.18;0.47;;;;;;;0.81;56.81;102916.38;5005772;28;20030;-71
2022/01/21 06:00:59;;;;;;;15.90;1.13;;;;;;;0.92;56.55;102903.84;5026454;28;20108;-72
2022/01/21 06:03:25;;;;;;;8.27;0.65;;;;;;;1.03;56.00;102908.50;5013865;28;20037;-72
2022/01/21 06:05:52;;;;;;;12.77;0.98;;;;;;;1.19;55.56;102909.88;4992842;28;20038;-71
2022/01/21 06:08:19;;;;;;;8.65;0.52;;;;;;;1.14;55.27;102910.56;5009692;28;20046;-73
2022/01/21 06:10:44;;;;;;;4.75;0.47;;;;;;;1.31;54.80;102917.13;5007215;28;20126;-72
2022/01/21 06:13:13;;;;;;;17.35;0.85;;;;;;;1.10;55.39;102917.31;5009240;28;20042;-70
2022/01/21 06:15:39;;;;;;;9.80;0.65;;;;;;;1.30;54.96;102917.94;5024421;28;20084;-70
2022/01/21 06:18:04;;;;;;;8.63;0.52;;;;;;;1.54;54.62;102917.00;5007900;28;20048;-71
2022/01/21 06:20:30;;;;;;;4.55;0.77;;;;;;;1.62;54.13;102916.41;5008465;28;20037;-71
2022/01/21 06:22:55;;;;;;;5.28;0.52;;;;;;;1.84;53.44;102927.34;5007442;28;20050;-71
2022/01/21 06:25:21;;;;;;;5.28;1.23;;;;;;;1.50;54.44;102929.78;5006943;28;20044;-70
2022/01/21 06:27:46;;;;;;;7.82;0.98;;;;;;;1.66;53.57;102932.81;5010269;28;20053;-73
2022/01/21 06:30:13;;;;;;;3.53;0.35;;;;;;;1.86;53.17;102942.06;5026323;28;20038;-72
2022/01/21 06:32:38;;;;;;;2.92;0.63;;;;;;;1.71;53.52;102939.03;5022751;28;20164;-74
2022/01/21 06:35:04;;;;;;;9.25;1.13;;;;;;;1.72;53.43;102930.44;5024737;28;20123;-72
2022/01/21 06:37:30;;;;;;;3.78;0.30;;;;;;;1.75;53.10;102937.38;5012120;28;20124;-73
2022/01/21 06:39:56;;;;;;;8.52;0.43;;;;;;;1.83;52.89;102947.09;5010857;28;20029;-72
2022/01/21 06:42:24;;;;;;;14.82;0.98;;;;;;;1.81;53.03;102946.19;5021306;28;20315;-72
2022/01/21 06:44:50;;;;;;;7.05;0.47;;;;;;;1.69;53.13;102945.81;4999465;28;20486;-72
2022/01/21 06:47:16;;;;;;;4.38;0.68;;;;;;;1.82;52.78;102945.38;5008195;28;20096;-73
2022/01/21 06:49:42;;;;;;;7.03;0.77;;;;;;;1.50;53.78;102937.50;5007805;28;20030;-74
2022/01/21 06:52:08;;;;;;;3.15;0.20;;;;;;;1.68;52.93;102949.22;5008638;28;20384;-72
2022/01/21 06:54:33;;;;;;;7.50;0.38;;;;;;;1.62;52.93;102946.47;5005491;28;20049;-72
2022/01/21 06:56:59;;;;;;;9.00;0.38;;;;;;;1.64;53.16;102952.53;5014836;28;20051;-73
2022/01/21 06:59:25;;;;;;;7.00;0.68;;;;;;;1.51;53.48;102949.59;5009790;28;20033;-74
2022/01/21 07:01:50;;;;;;;8.52;0.70;;;;;;;1.75;52.85;102953.72;5008219;28;20046;-70
2022/01/21 07:04:16;;;;;;;9.10;0.40;;;;;;;1.67;53.15;102945.78;5005979;28;20037;-73
2022/01/21 07:06:41;;;;;;;12.35;1.70;;;;;;;1.80;52.94;102943.56;4995009;28;20030;-71
2022/01/21 07:09:07;;;;;;;9.18;0.35;;;;;;;1.82;53.07;102945.38;4995073;28;20129;-74
2022/01/21 07:11:33;;;;;;;7.63;0.40;;;;;;;1.83;53.12;102954.84;5004948;28;20121;-72
2022/01/21 07:13:58;;;;;;;14.73;0.85;;;;;;;1.65;54.08;102942.28;5007615;28;20069;-73
2022/01/21 07:16:24;;;;;;;9.05;0.28;;;;;;;1.69;53.50;102950.97;5023503;28;20503;-72
2022/01/21 07:18:50;;;;;;;3.13;0.20;;;;;;;1.78;53.13;102953.84;5004973;28;20065;-74
2022/01/21 07:21:16;;;;;;;10.52;1.00;;;;;;;1.88;52.55;102957.56;5009193;28;20038;-73
2022/01/21 07:23:41;;;;;;;9.63;0.45;;;;;;;1.74;53.01;102957.16;5005960;28;20578;-75
2022/01/21 07:26:07;;;;;;;6.28;0.50;;;;;;;1.55;53.41;102965.13;5008776;28;20129;-76
2022/01/21 07:28:33;;;;;;;4.85;0.88;;;;;;;1.79;52.64;102958.16;5021718;28;20265;-76
2022/01/21 07:30:59;;;;;;;10.25;0.35;;;;;;;1.72;52.24;102958.81;5009740;28;20712;-76
2022/01/21 07:33:25;;;;;;;9.82;0.63;;;;;;;1.60;52.49;102956.72;5008624;28;20078;-75
2022/01/21 07:35:53;;;;;;;9.70;0.88;;;;;;;1.63;51.99;102963.69;5016108;28;20061;-76
2022/01/21 07:38:19;;;;;;;7.82;0.82;;;;;;;1.75;51.57;102968.31;5009479;28;20049;-76
2022/01/21 07:40:45;;;;;;;3.65;0.60;;;;;;;2.15;50.36;102960.06;5010509;28;20022;-76
2022/01/21 07:43:11;;;;;;;7.80;0.43;;;;;;;2.13;50.77;102961.72;5007930;28;20045;-76
2022/01/21 07:45:37;;;;;;;5.40;0.22;;;;;;;2.23;50.57;102966.31;5010404;28;20034;-74
2022/01/21 07:48:05;;;;;;;8.48;0.95;;;;;;;2.19;50.31;102968.78;5006820;28;20116;-74
2022/01/21 07:50:32;;;;;;;7.10;0.55;;;;;;;2.28;50.07;102969.91;5023958;28;20120;-73
2022/01/21 07:52:57;;;;;;;10.30;0.90;;;;;;;2.19;50.60;102961.91;5007311;28;20034;-75
2022/01/21 07:55:23;;;;;;;12.63;0.60;;;;;;;2.08;50.97;102964.16;5013518;28;20555;-72
2022/01/21 07:57:51;;;;;;;7.88;0.47;;;;;;;2.10;50.97;102970.25;5005987;28;20534;-73
2022/01/21 08:00:17;;;;;;;9.05;0.70;;;;;;;2.18;51.05;102970.47;5025643;28;20038;-75
2022/01/21 08:02:43;;;;;;;13.65;0.82;;;;;;;1.99;51.77;102969.06;5005201;28;20487;-76
2022/01/21 08:05:09;;;;;;;2.67;0.77;;;;;;;2.16;51.27;102971.28;5007670;28;20406;-75
2022/01/21 08:07:35;;;;;;;7.30;0.90;;;;;;;2.15;51.66;102978.13;5024597;28;20045;-76
2022/01/21 08:10:00;;;;;;;7.47;1.35;;;;;;;1.97;51.90;102978.44;5006600;28;20033;-74
2022/01/21 08:12:27;;;;;;;8.93;0.55;;;;;;;2.38;50.75;102983.06;5007361;28;20077;-73
2022/01/21 08:14:53;;;;;;;4.38;0.47;;;;;;;2.36;50.80;102993.34;5007808;28;20293;-73
2022/01/21 08:17:18;;;;;;;9.18;0.70;;;;;;;2.52;50.52;102994.66;5009663;28;20403;-73
2022/01/21 08:19:44;;;;;;;11.02;1.27;;;;;;;2.50;50.79;102989.44;5010161;28;20030;-74
2022/01/21 08:22:09;;;;;;;7.57;0.50;;;;;;;2.57;50.85;102996.50;5010460;28;20127;-74
2022/01/21 08:24:35;;;;;;;16.17;1.88;;;;;;;2.49;51.71;102999.75;5019050;28;20452;-74
2022/01/21 08:27:01;;;;;;;14.52;1.58;;;;;;;2.62;51.45;103004.38;5008920;28;20469;-74
2022/01/21 08:29:26;;;;;;;9.13;1.40;;;;;;;2.34;52.55;102998.47;5028417;28;20040;-74
2022/01/21 08:31:54;;;;;;;6.60;1.23;;;;;;;2.60;52.11;103003.50;4996450;28;20570;-75
2022/01/21 08:34:19;;;;;;;15.88;1.60;;;;;;;2.80;51.61;103009.19;5013857;28;20034;-75
2022/01/21 08:36:46;;;;;;;7.72;0.98;;;;;;;2.87;51.45;103002.50;5011348;28;20212;-76
2022/01/21 08:39:13;;;;;;;10.35;1.10;;;;;;;2.86;51.35;102998.13;5011355;28;20038;-73
2022/01/21 08:41:38;;;;;;;8.88;1.80;;;;;;;2.95;50.97;102998.38;5012901;28;20061;-73
2022/01/21 08:44:04;;;;;;;10.43;1.08;;;;;;;2.88;50.65;102999.06;5026360;28;20064;-74
2022/01/21 08:46:30;;;;;;;8.68;0.55;;;;;;;2.98;49.86;102998.47;5010681;28;20375;-75
2022/01/21 08:48:56;;;;;;;5.68;0.50;;;;;;;3.13;49.72;103003.13;5011375;28;20092;-73
2022/01/21 08:51:26;;;;;;;18.13;0.93;;;;;;;3.12;49.68;103010.03;5012373;28;20088;-73
2022/01/21 08:53:54;;;;;;;3.92;0.52;;;;;;;3.21;49.27;103001.63;5009981;28;20094;-72
2022/01/21 08:56:21;;;;;;;10.93;0.80;;;;;;;3.11;49.41;102995.38;5010305;28;20045;-74
2022/01/21 08:58:48;;;;;;;11.95;0.77;;;;;;;3.27;49.04;102987.97;5008747;28;20561;-74
2022/01/21 09:01:16;;;;;;;8.43;0.73;;;;;;;3.49;48.66;102982.53;5013592;28;20041;-74
2022/01/21 09:03:42;;;;;;;7.05;0.47;;;;;;;3.47;48.72;102984.19;5008198;28;20443;-76
2022/01/21 09:06:08;;;;;;;14.48;2.65;;;;;;;3.63;48.33;102979.34;5011649;28;20477;-76
2022/01/21 09:08:35;;;;;;;4.68;0.63;;;;;;;3.70;48.06;102992.47;5009497;28;20044;-74
2022/01/21 09:11:03;;;;;;;3.65;0.60;;;;;;;3.78;47.58;102990.94;5010851;28;20030;-74
2022/01/21 09:13:31;;;;;;;6.40;0.50;;;;;;;3.35;48.16;102989.06;5011979;28;20516;-74
2022/01/21 09:16:00;;;;;;;10.02;0.75;;;;;;;3.58;47.57;102982.75;5010133;28;20022;-74
2022/01/21 09:18:33;;;;;;;9.35;0.45;;;;;;;3.70;47.14;102987.31;4992577;28;20042;-75
2022/01/21 09:21:00;;;;;;;5.10;0.68;;;;;;;3.96;46.49;102990.47;5009093;28;20068;-74
2022/01/21 09:23:25;;;;;;;7.57;0.55;;;;;;;4.29;46.24;102989.41;5007303;28;20491;-73
2022/01/21 09:25:51;;;;;;;9.52;0.70;;;;;;;4.80;45.29;102987.81;5004652;28;20107;-74
2022/01/21 09:28:17;;;;;;;10.48;0.38;;;;;;;4.52;45.02;102981.22;5010465;28;20855;-74
2022/01/21 09:30:43;;;;;;;8.38;1.05;;;;;;;4.48;45.67;102984.63;5010048;28;20281;-74
2022/01/21 09:33:09;;;;;;;15.05;1.42;;;;;;;4.52;45.66;102989.88;5023953;28;20471;-74
2022/01/21 09:35:34;;;;;;;12.82;0.88;;;;;;;4.56;45.79;102988.22;5005351;28;20044;-74
2022/01/21 09:38:00;;;;;;;14.27;1.58;;;;;;;4.58;46.16;102996.88;4990018;28;20041;-74
2022/01/21 09:40:30;;;;;;;24.42;1.95;;;;;;;4.53;46.40;102990.75;4993393;28;20045;-75
2022/01/21 09:42:57;;;;;;;7.65;1.70;;;;;;;4.81;46.25;102990.44;5008519;28;20046;-74
2022/01/21 09:45:24;;;;;;;10.65;1.38;;;;;;;4.36;47.09;102996.50;5008131;28;20110;-75
2022/01/21 09:47:52;;;;;;;15.32;1.98;;;;;;;4.63;46.79;103000.44;5007976;28;20053;-74
2022/01/21 09:50:20;;;;;;;14.65;1.80;;;;;;;4.19;48.08;103006.47;5023326;28;20057;-74
2022/01/21 09:52:51;;;;;;;10.18;2.00;;;;;;;4.32;47.92;103002.44;5023174;28;20043;-74
2022/01/21 09:55:21;;;;;;;10.63;1.65;;;;;;;3.88;49.39;103004.94;5007751;28;20544;-74
2022/01/21 09:57:54;;;;;;;13.98;1.13;;;;;;;3.84;49.86;103003.13;5006327;28;20033;-74
2022/01/21 10:00:23;;;;;;;8.32;0.90;;;;;;;4.11;49.25;103007.16;5006476;28;20087;-74
2022/01/21 10:02:51;;;;;;;18.58;1.30;;;;;;;3.61;50.24;103009.50;5007906;28;20467;-74
2022/01/21 10:05:17;;;;;;;13.98;1.65;;;;;;;3.76;50.02;103007.25;5009576;28;20521;-74
2022/01/21 10:07:48;;;;;;;13.45;1.48;;;;;;;3.39;50.25;103015.03;5009681;28;20738;-74
2022/01/21 10:10:15;;;;;;;8.95;1.33;;;;;;;3.92;48.58;103005.91;5024910;28;20048;-74
2022/01/21 10:12:45;;;;;;;7.28;0.88;;;;;;;3.86;48.42;103008.34;5020866;28;20037;-74
2022/01/21 10:15:12;;;;;;;4.75;0.40;;;;;;;4.11;47.37;103014.94;5015720;28;20135;-73
2022/01/21 10:17:39;;;;;;;8.02;0.75;;;;;;;3.97;47.63;103012.03;5012947;28;20033;-73
2022/01/21 10:20:21;;;;;;;7.47;0.95;;;;;;;4.01;47.59;103017.31;5008544;28;20080;-74
2022/01/21 10:23:03;;;;;;;5.45;0.22;;;;;;;4.21;47.41;103014.28;5010558;28;20506;-74
2022/01/21 10:25:31;;;;;;;3.92;0.43;;;;;;;4.38;46.99;103018.06;5009003;28;20054;-74
2022/01/21 10:28:17;;;;;;;12.20;0.63;;;;;;;4.19;47.21;103019.44;5001163;28;20037;-74
2022/01/21 10:30:44;;;;;;;13.05;0.60;;;;;;;4.16;47.73;103024.56;5009599;28;20093;-74
2022/01/21 10:33:23;;;;;;;3.70;0.30;;;;;;;4.24;47.56;103026.41;5010345;28;20034;-73
2022/01/21 10:35:51;;;;;;;10.65;0.93;;;;;;;4.44;47.36;103025.09;5009197;28;20037;-74
2022/01/21 10:38:22;;;;;;;15.93;0.75;;;;;;;4.49;47.14;103030.38;5006167;28;20041;-74
2022/01/21 10:40:49;;;;;;;9.18;0.65;;;;;;;4.30;47.99;103032.59;4997395;28;20553;-73
2022/01/21 10:43:17;;;;;;;10.90;0.70;;;;;;;4.34;48.27;103028.34;5010555;28;20821;-74
2022/01/21 10:45:51;;;;;;;4.07;0.30;;;;;;;4.17;48.50;103030.59;5023082;28;20052;-73
2022/01/21 10:48:16;;;;;;;15.98;0.65;;;;;;;4.38;47.89;103030.16;5009701;28;20119;-74
2022/01/21 10:50:42;;;;;;;12.98;1.35;;;;;;;4.18;48.56;103029.75;4992622;28;20030;-74
2022/01/21 10:53:26;;;;;;;3.97;0.77;;;;;;;4.31;48.64;103034.34;5010781;28;20038;-74
2022/01/21 10:55:52;;;;;;;14.68;1.52;;;;;;;4.40;48.25;103021.56;5023943;28;20479;-73
2022/01/21 10:58:21;;;;;;;5.13;0.52;;;;;;;4.38;48.69;103019.78;5008141;28;20050;-73
2022/01/21 11:01:01;;;;;;;12.43;1.40;;;;;;;4.55;47.90;103015.84;5007550;28;20030;-73
2022/01/21 11:03:29;;;;;;;15.02;2.55;;;;;;;4.41;48.76;103015.56;4990497;28;20557;-73
2022/01/21 11:06:19;;;;;;;14.75;2.88;;;;;;;4.36;48.36;103012.03;5005091;28;20296;-73
2022/01/21 11:08:44;;;;;;;17.75;2.28;;;;;;;4.56;48.37;103008.94;5007020;28;20486;-73
2022/01/21 11:11:10;;;;;;;15.27;3.63;;;;;;;4.46;48.44;103001.84;5008451;28;20026;-73
2022/01/21 11:13:40;;;;;;;24.13;2.88;;;;;;;4.57;48.38;102996.03;5016127;28;20064;-74
2022/01/21 11:16:23;;;;;;;8.65;1.80;;;;;;;4.40;48.69;103007.75;5008636;28;20037;-74
2022/01/21 11:19:06;;;;;;;7.75;1.30;;;;;;;4.77;48.43;102998.13;5011319;28;20037;-74
2022/01/21 11:21:39;;;;;;;6.65;1.27;;;;;;;4.81;48.37;103005.97;5006230;28;20033;-74
2022/01/21 11:24:10;;;;;;;12.85;1.48;;;;;;;4.69;48.50;103005.72;5010406;28;20079;-74
2022/01/21 11:26:35;;;;;;;9.90;1.08;;;;;;;4.66;48.71;102999.63;5009753;28;20025;-74
2022/01/21 11:29:03;;;;;;;10.15;0.95;;;;;;;4.65;48.80;102990.97;5007544;28;20410;-73
2022/01/21 11:31:30;;;;;;;14.52;1.95;;;;;;;4.34;49.63;102993.00;5008488;28;20577;-74
2022/01/21 11:33:56;;;;;;;15.32;0.93;;;;;;;4.38;49.27;102992.19;5014423;28;20080;-73
2022/01/21 11:36:21;;;;;;;13.45;0.90;;;;;;;4.53;49.90;102988.16;5009040;28;20471;-73
2022/01/21 11:38:48;;;;;;;12.57;1.60;;;;;;;4.58;50.23;102983.94;4992021;28;20120;-74
2022/01/21 11:41:15;;;;;;;10.85;1.20;;;;;;;4.50;50.54;102991.56;5008235;28;20034;-74
2022/01/21 11:43:50;;;;;;;11.80;1.95;;;;;;;4.56;50.18;102988.22;5005555;28;20034;-75
2022/01/21 11:46:39;;;;;;;12.88;0.55;;;;;;;4.13;51.50;102987.38;5004818;28;20058;-74
2022/01/21 11:49:11;;;;;;;13.85;1.60;;;;;;;4.47;51.13;102982.84;4990324;28;20046;-73
2022/01/21 11:51:40;;;;;;;12.90;1.17;;;;;;;4.21;51.60;102980.63;5013554;28;20124;-73
2022/01/21 11:54:08;;;;;;;8.38;0.55;;;;;;;4.19;51.67;102993.53;5024602;28;20539;-73
2022/01/21 11:56:42;;;;;;;16.20;1.58;;;;;;;4.36;51.32;102988.72;5006765;28;20046;-74
2022/01/21 11:59:40;;;;;;;5.20;0.70;;;;;;;4.39;51.43;102986.19;5010278;28;20523;-73
2022/01/21 12:02:15;;;;;;;14.57;1.80;;;;;;;4.52;51.03;102981.22;5009744;28;20146;-74
2022/01/21 12:04:43;;;;;;;10.27;1.20;;;;;;;4.21;51.67;102971.16;5006133;28;20165;-73
2022/01/21 12:07:40;;;;;;;11.63;0.52;;;;;;;4.68;50.90;102972.06;5010942;28;20038;-73
2022/01/21 12:10:07;;;;;;;13.40;2.00;;;;;;;4.81;49.92;102974.88;5025441;28;20034;-73
2022/01/21 12:12:45;;;;;;;11.00;2.80;;;;;;;4.68;50.49;102969.47;5009748;28;20533;-73
2022/01/21 12:15:54;;;;;;;11.45;1.13;;;;;;;4.17;51.70;102971.06;5023815;28;20038;-74
2022/01/21 12:19:17;;;;;;;6.70;1.15;;;;;;;4.46;51.08;102966.47;5008888;28;20060;-73
2022/01/21 12:21:43;;;;;;;15.20;1.73;;;;;;;4.81;49.97;102959.34;5005607;28;20033;-73
2022/01/21 12:24:10;;;;;;;11.18;0.88;;;;;;;4.73;50.14;102955.72;4997074;28;20048;-74